createdAt,value
2023-05-30T00:02:09.512Z,99.90
2023-05-30T00:04:37.110Z,99.90
2023-05-30T00:07:04.089Z,99.90
2023-05-30T00:09:30.847Z,99.90
2023-05-30T00:11:57.462Z,99.90
2023-05-30T00:14:24.208Z,99.90
2023-05-30T00:16:50.982Z,99.90
2023-05-30T00:19:17.575Z,99.90
2023-05-30T00:21:46.120Z,99.90
2023-05-30T00:24:13.110Z,99.90
2023-05-30T00:26:39.781Z,99.90
2023-05-30T00:29:06.519Z,99.90
2023-05-30T00:31:33.270Z,99.90
2023-05-30T00:33:59.979Z,99.90
2023-05-30T00:36:26.675Z,99.90
2023-05-30T00:38:53.332Z,99.90
2023-05-30T00:41:19.991Z,99.90
2023-05-30T00:43:46.656Z,99.90
2023-05-30T00:46:14.452Z,99.90
2023-05-30T00:48:41.763Z,99.90
2023-05-30T00:51:11.864Z,99.90
2023-05-30T00:53:41.389Z,99.90
2023-05-30T00:56:08.953Z,99.90
2023-05-30T00:58:36.801Z,99.90
2023-05-30T01:01:03.619Z,99.90
2023-05-30T01:03:33.906Z,99.90
2023-05-30T01:06:02.442Z,99.90
2023-05-30T01:08:29.170Z,99.90
2023-05-30T01:11:05.086Z,99.90
2023-05-30T01:13:44.635Z,99.90
2023-05-30T01:16:18.532Z,99.90
2023-05-30T01:18:51.626Z,99.90
2023-05-30T01:21:21.538Z,99.90
2023-05-30T01:23:51.492Z,99.90
2023-05-30T01:26:34.508Z,99.90
2023-05-30T01:29:03.743Z,99.90
2023-05-30T01:31:34.461Z,99.90
2023-05-30T01:34:02.545Z,99.90
2023-05-30T01:36:30.296Z,99.90
2023-05-30T01:38:56.860Z,99.90
2023-05-30T01:41:30.581Z,99.90
2023-05-30T01:44:08.442Z,99.90
2023-05-30T01:46:44.114Z,99.90
2023-05-30T01:49:21.905Z,99.90
2023-05-30T01:52:03.818Z,99.90
2023-05-30T01:54:33.368Z,99.90
2023-05-30T01:57:13.311Z,99.90
2023-05-30T01:59:41.537Z,99.90
2023-05-30T02:02:09.720Z,99.90
2023-05-30T02:04:36.970Z,99.90
2023-05-30T02:07:04.455Z,99.90
2023-05-30T02:09:31.405Z,99.90
2023-05-30T02:11:58.205Z,99.90
2023-05-30T02:14:24.878Z,99.90
2023-05-30T02:16:51.519Z,99.90
2023-05-30T02:19:18.229Z,99.90
2023-05-30T02:21:44.950Z,99.90
2023-05-30T02:24:13.391Z,99.90
2023-05-30T02:26:40.082Z,99.90
2023-05-30T02:29:06.741Z,99.90
2023-05-30T02:31:33.426Z,99.90
2023-05-30T02:34:00.152Z,99.90
2023-05-30T02:36:26.819Z,99.90
2023-05-30T02:38:53.428Z,99.90
2023-05-30T02:41:20.012Z,99.90
2023-05-30T02:43:46.676Z,99.90
2023-05-30T02:46:13.432Z,99.90
2023-05-30T02:48:40.078Z,99.90
2023-05-30T02:51:06.768Z,99.90
2023-05-30T02:53:33.425Z,99.90
2023-05-30T02:56:00.092Z,99.90
2023-05-30T02:58:27.086Z,99.90
2023-05-30T03:00:53.692Z,99.90
2023-05-30T03:03:22.332Z,99.90
2023-05-30T03:05:49.127Z,99.90
2023-05-30T03:08:25.543Z,99.90
2023-05-30T03:10:52.481Z,99.90
2023-05-30T03:13:19.097Z,99.90
2023-05-30T03:15:45.803Z,99.90
2023-05-30T03:18:12.468Z,99.90
2023-05-30T03:20:39.236Z,99.90
2023-05-30T03:23:06.340Z,99.90
2023-05-30T03:25:33.501Z,99.90
2023-05-30T03:28:00.269Z,99.90
2023-05-30T03:30:28.561Z,99.90
2023-05-30T03:32:55.892Z,99.90
2023-05-30T03:35:22.624Z,99.90
2023-05-30T03:37:49.277Z,99.90
2023-05-30T03:40:16.307Z,99.90
2023-05-30T03:42:44.633Z,99.90
2023-05-30T03:45:12.077Z,99.90
2023-05-30T03:47:38.720Z,99.90
2023-05-30T03:50:05.998Z,99.90
2023-05-30T03:52:32.607Z,99.90
2023-05-30T03:54:59.269Z,99.90
2023-05-30T03:57:25.893Z,99.90
2023-05-30T03:59:53.252Z,99.90
2023-05-30T04:02:20.079Z,99.90
2023-05-30T04:04:46.862Z,99.90
2023-05-30T04:07:16.361Z,99.90
2023-05-30T04:09:43.022Z,99.90
2023-05-30T04:12:10.216Z,99.90
2023-05-30T04:14:36.863Z,99.90
2023-05-30T04:17:03.603Z,99.90
2023-05-30T04:19:30.509Z,99.90
2023-05-30T04:21:57.096Z,99.90
2023-05-30T04:24:23.878Z,99.90
2023-05-30T04:26:51.792Z,99.90
2023-05-30T04:29:21.635Z,99.90
2023-05-30T04:31:49.005Z,99.90
2023-05-30T04:34:18.767Z,99.90
2023-05-30T04:36:45.763Z,99.90
2023-05-30T04:39:12.876Z,99.90
2023-05-30T04:41:41.522Z,99.90
2023-05-30T04:44:08.383Z,99.90
2023-05-30T04:46:36.878Z,99.90
2023-05-30T04:49:03.954Z,99.90
2023-05-30T04:51:31.175Z,99.90
2023-05-30T04:53:57.878Z,99.90
2023-05-30T04:56:24.552Z,99.90
2023-05-30T04:58:54.469Z,99.90
2023-05-30T05:01:22.401Z,99.90
2023-05-30T05:03:49.403Z,99.90
2023-05-30T05:06:16.269Z,99.90
2023-05-30T05:08:42.932Z,99.90
2023-05-30T05:11:10.305Z,99.90
2023-05-30T05:13:38.581Z,99.90
2023-05-30T05:16:05.909Z,99.90
2023-05-30T05:18:32.941Z,99.90
2023-05-30T05:21:00.154Z,99.90
2023-05-30T05:23:29.184Z,99.90
2023-05-30T05:25:57.545Z,99.90
2023-05-30T05:28:24.507Z,99.90
2023-05-30T05:30:51.239Z,99.90
2023-05-30T05:33:17.878Z,99.90
2023-05-30T05:35:47.886Z,99.90
2023-05-30T05:38:17.449Z,99.90
2023-05-30T05:40:44.235Z,99.90
2023-05-30T05:43:11.098Z,99.90
2023-05-30T05:45:37.767Z,99.90
2023-05-30T05:48:04.728Z,99.90
2023-05-30T05:50:31.824Z,99.90
2023-05-30T05:52:58.435Z,99.90
2023-05-30T05:55:25.094Z,99.90
2023-05-30T05:57:57.147Z,99.90
2023-05-30T06:00:25.382Z,99.90
2023-05-30T06:02:52.236Z,99.90
2023-05-30T06:05:19.067Z,99.90
2023-05-30T06:07:45.850Z,99.90
2023-05-30T06:10:12.489Z,99.90
2023-05-30T06:12:39.302Z,99.90
2023-05-30T06:15:08.501Z,99.90
2023-05-30T06:17:35.893Z,99.90
2023-05-30T06:20:03.626Z,99.90
2023-05-30T06:22:30.306Z,99.90
2023-05-30T06:24:58.588Z,99.90
2023-05-30T06:27:25.351Z,99.90
2023-05-30T06:29:53.898Z,99.90
2023-05-30T06:32:20.680Z,99.90
2023-05-30T06:34:47.450Z,99.90
2023-05-30T06:37:16.621Z,99.90
2023-05-30T06:39:43.446Z,99.90
2023-05-30T06:42:10.907Z,99.90
2023-05-30T06:44:38.585Z,99.90
2023-05-30T06:47:07.136Z,99.90
2023-05-30T06:49:33.850Z,99.90
2023-05-30T06:52:00.523Z,99.90
2023-05-30T06:54:27.240Z,99.90
2023-05-30T06:56:53.901Z,99.90
2023-05-30T06:59:22.792Z,99.90
2023-05-30T07:01:49.419Z,99.90
2023-05-30T07:04:16.187Z,99.90
2023-05-30T07:06:44.439Z,99.90
2023-05-30T07:09:11.320Z,99.90
2023-05-30T07:11:37.933Z,99.90
2023-05-30T07:14:06.613Z,99.90
2023-05-30T07:16:33.355Z,99.90
2023-05-30T07:19:11.785Z,99.90
2023-05-30T07:21:39.708Z,99.90
2023-05-30T07:24:06.861Z,99.90
2023-05-30T07:26:34.267Z,99.90
2023-05-30T07:29:03.157Z,99.90
2023-05-30T07:31:31.853Z,99.90
2023-05-30T07:33:58.670Z,99.90
2023-05-30T07:36:26.032Z,99.90
2023-05-30T07:38:52.642Z,99.90
2023-05-30T07:41:19.365Z,99.90
2023-05-30T07:43:46.120Z,99.90
2023-05-30T07:46:12.820Z,99.90
2023-05-30T07:48:39.538Z,99.90
2023-05-30T07:51:07.106Z,99.90
2023-05-30T07:53:33.723Z,99.90
2023-05-30T07:56:00.631Z,99.90
2023-05-30T07:58:27.222Z,99.90
2023-05-30T08:00:53.892Z,99.90
2023-05-30T08:03:20.650Z,99.90
2023-05-30T08:05:53.214Z,99.90
2023-05-30T08:08:20.145Z,99.90
2023-05-30T08:10:46.853Z,99.90
2023-05-30T08:13:16.394Z,99.90
2023-05-30T08:15:44.803Z,99.90
2023-05-30T08:18:12.149Z,99.90
2023-05-30T08:20:39.675Z,99.90
2023-05-30T08:23:06.587Z,99.90
2023-05-30T08:25:34.606Z,99.90
2023-05-30T08:28:02.642Z,99.90
2023-05-30T08:30:29.918Z,99.90
2023-05-30T08:32:57.127Z,99.90
2023-05-30T08:35:25.311Z,99.90
2023-05-30T08:37:54.253Z,99.90
2023-05-30T08:40:23.954Z,99.90
2023-05-30T08:42:50.754Z,99.90
2023-05-30T08:45:19.920Z,99.90
2023-05-30T08:47:47.438Z,99.90
2023-05-30T08:50:14.810Z,99.90
2023-05-30T08:52:43.944Z,99.90
2023-05-30T08:55:17.469Z,99.90
2023-05-30T08:57:57.257Z,99.90
2023-05-30T09:00:24.691Z,99.90
2023-05-30T09:02:56.638Z,99.90
2023-05-30T09:05:24.048Z,99.90
2023-05-30T09:07:50.914Z,99.90
2023-05-30T09:10:18.058Z,99.90
2023-05-30T09:12:44.897Z,99.90
2023-05-30T09:15:11.946Z,99.90
2023-05-30T09:17:38.596Z,99.90
2023-05-30T09:20:11.104Z,99.90
2023-05-30T09:22:37.964Z,99.90
2023-05-30T09:25:06.636Z,99.90
2023-05-30T09:27:36.978Z,99.90
2023-05-30T09:30:10.585Z,99.90
2023-05-30T09:32:42.294Z,99.90
2023-05-30T09:35:11.219Z,99.90
2023-05-30T09:37:40.112Z,99.90
2023-05-30T09:40:09.065Z,99.90
2023-05-30T09:42:51.858Z,99.90
2023-05-30T09:45:25.562Z,99.90
2023-05-30T09:47:53.570Z,99.90
2023-05-30T09:50:24.735Z,99.90
2023-05-30T09:52:57.403Z,99.90
2023-05-30T09:55:30.184Z,99.90
2023-05-30T09:57:56.836Z,99.90
2023-05-30T10:00:29.479Z,99.90
2023-05-30T10:02:59.113Z,99.90
2023-05-30T10:05:30.443Z,99.90
2023-05-30T10:07:59.338Z,99.90
2023-05-30T10:10:26.417Z,99.90
2023-05-30T10:12:55.004Z,99.90
2023-05-30T10:15:23.202Z,99.90
2023-05-30T10:18:11.112Z,99.90
2023-05-30T10:20:39.485Z,99.90
2023-05-30T10:23:12.471Z,99.90
2023-05-30T10:25:44.743Z,99.90
2023-05-30T10:28:19.237Z,99.90
2023-05-30T10:30:48.751Z,99.90
2023-05-30T10:33:18.920Z,99.90
2023-05-30T10:35:49.537Z,99.90
2023-05-30T10:38:17.307Z,99.90
2023-05-30T10:41:12.448Z,99.90
2023-05-30T10:44:08.365Z,99.90
2023-05-30T10:47:12.033Z,99.90
2023-05-30T10:49:41.640Z,99.90
2023-05-30T10:52:12.494Z,99.90
2023-05-30T10:54:39.174Z,99.90
2023-05-30T10:57:32.068Z,99.90
2023-05-30T11:00:10.591Z,99.90
2023-05-30T11:02:39.282Z,99.90
2023-05-30T11:05:13.115Z,99.90
2023-05-30T11:07:44.031Z,99.90
2023-05-30T11:10:14.412Z,99.90
2023-05-30T11:12:49.205Z,99.90
2023-05-30T11:15:31.002Z,99.90
2023-05-30T11:17:57.642Z,99.90
2023-05-30T11:20:24.406Z,99.90
2023-05-30T11:23:03.489Z,99.90
2023-05-30T11:25:32.701Z,99.90
2023-05-30T11:28:05.488Z,99.90
2023-05-30T11:30:34.467Z,99.90
2023-05-30T11:33:01.243Z,99.90
2023-05-30T11:35:28.936Z,99.90
2023-05-30T11:37:57.837Z,99.90
2023-05-30T11:40:25.267Z,99.90
2023-05-30T11:42:55.371Z,99.90
2023-05-30T11:45:31.715Z,99.90
2023-05-30T11:48:07.063Z,99.90
2023-05-30T11:50:44.153Z,99.90
2023-05-30T11:53:15.554Z,99.90
2023-05-30T11:55:51.561Z,99.90
2023-05-30T11:58:19.868Z,99.90
2023-05-30T12:00:49.481Z,99.90
2023-05-30T12:03:19.788Z,99.90
2023-05-30T12:05:49.479Z,99.90
2023-05-30T12:08:20.266Z,99.90
2023-05-30T12:10:50.967Z,99.90
2023-05-30T12:13:21.956Z,99.90
2023-05-30T12:15:49.722Z,99.90
2023-05-30T12:18:17.707Z,99.90
2023-05-30T12:20:45.824Z,99.90
2023-05-30T12:23:12.756Z,99.90
2023-05-30T12:25:39.768Z,99.90
2023-05-30T12:28:06.710Z,99.90
2023-05-30T12:30:41.405Z,99.90
2023-05-30T12:33:18.609Z,99.90
2023-05-30T12:35:46.642Z,99.90
2023-05-30T12:38:15.833Z,99.90
2023-05-30T12:40:46.131Z,99.90
2023-05-30T12:43:14.326Z,99.90
2023-05-30T12:45:44.743Z,99.90
2023-05-30T12:48:13.425Z,99.90
2023-05-30T12:50:40.108Z,99.90
2023-05-30T12:53:08.498Z,99.90
2023-05-30T12:55:35.459Z,99.90
2023-05-30T12:58:02.359Z,99.90
2023-05-30T13:00:29.062Z,99.90
2023-05-30T13:02:55.879Z,99.90
2023-05-30T13:05:22.544Z,99.90
2023-05-30T13:07:51.061Z,99.90
2023-05-30T13:10:17.794Z,99.90
2023-05-30T13:12:44.478Z,99.90
2023-05-30T13:15:11.415Z,99.90
2023-05-30T13:17:40.451Z,99.90
2023-05-30T13:20:09.635Z,99.90
2023-05-30T13:22:37.304Z,99.90
2023-05-30T13:25:04.403Z,99.90
2023-05-30T13:27:31.139Z,99.90
2023-05-30T13:29:57.789Z,99.90
2023-05-30T13:32:26.699Z,99.90
2023-05-30T13:34:54.636Z,99.90
2023-05-30T13:37:22.529Z,99.90
2023-05-30T13:39:50.132Z,99.90
2023-05-30T13:42:17.469Z,99.90
2023-05-30T13:44:44.198Z,99.90
2023-05-30T13:47:10.791Z,99.90
2023-05-30T13:49:38.324Z,99.90
2023-05-30T13:52:05.265Z,99.90
2023-05-30T13:54:32.181Z,99.90
2023-05-30T13:56:59.027Z,99.90
2023-05-30T13:59:28.009Z,99.90
2023-05-30T14:01:55.198Z,99.90
2023-05-30T14:04:22.059Z,99.90
2023-05-30T14:06:51.997Z,99.90
2023-05-30T14:09:22.895Z,99.90
2023-05-30T14:11:49.947Z,99.90
2023-05-30T14:14:21.375Z,99.90
2023-05-30T14:16:48.027Z,99.90
2023-05-30T14:19:14.809Z,99.90
2023-05-30T14:21:42.846Z,99.90
2023-05-30T14:24:09.585Z,99.90
2023-05-30T14:26:37.730Z,99.90
2023-05-30T14:29:04.863Z,99.90
2023-05-30T14:31:31.611Z,99.90
2023-05-30T14:33:58.525Z,99.90
2023-05-30T14:36:25.361Z,99.90
2023-05-30T14:38:52.120Z,99.90
2023-05-30T14:41:19.018Z,99.90
2023-05-30T14:43:45.698Z,99.90
2023-05-30T14:46:12.426Z,99.90
2023-05-30T14:48:39.080Z,99.90
2023-05-30T14:51:05.722Z,99.90
2023-05-30T14:53:33.708Z,99.90
2023-05-30T14:56:01.363Z,99.90
2023-05-30T14:58:28.293Z,99.90
2023-05-30T15:00:55.248Z,99.90
2023-05-30T15:03:22.298Z,99.90
2023-05-30T15:05:48.954Z,99.90
2023-05-30T15:08:15.535Z,99.90
2023-05-30T15:10:43.015Z,99.90
2023-05-30T15:13:09.856Z,99.90
2023-05-30T15:15:36.457Z,99.90
2023-05-30T15:18:03.240Z,99.90
2023-05-30T15:20:29.949Z,99.90
2023-05-30T15:22:56.726Z,99.90
2023-05-30T15:25:23.325Z,99.90
2023-05-30T15:27:51.051Z,99.90
2023-05-30T15:30:18.502Z,99.90
2023-05-30T15:32:45.138Z,99.90
2023-05-30T15:35:11.923Z,99.90
2023-05-30T15:37:38.593Z,99.90
2023-05-30T15:40:06.599Z,99.90
2023-05-30T15:42:33.406Z,99.90
2023-05-30T15:45:00.218Z,99.90
2023-05-30T15:47:26.851Z,99.90
2023-05-30T15:49:53.773Z,99.90
2023-05-30T15:52:21.683Z,99.90
2023-05-30T15:54:48.350Z,99.90
2023-05-30T15:57:15.064Z,99.90
2023-05-30T15:59:41.699Z,99.90
2023-05-30T16:02:08.767Z,99.90
2023-05-30T16:04:36.434Z,99.90
2023-05-30T16:07:03.380Z,99.90
2023-05-30T16:09:30.154Z,99.90
2023-05-30T16:11:56.879Z,99.90
2023-05-30T16:14:25.880Z,99.90
2023-05-30T16:16:54.381Z,99.90
2023-05-30T16:19:21.067Z,99.90
2023-05-30T16:21:48.726Z,99.90
2023-05-30T16:24:15.434Z,99.90
2023-05-30T16:26:42.615Z,99.90
2023-05-30T16:29:09.367Z,99.90
2023-05-30T16:31:36.233Z,99.90
2023-05-30T16:34:04.533Z,99.90
2023-05-30T16:36:31.574Z,99.90
2023-05-30T16:38:58.609Z,99.90
2023-05-30T16:41:25.765Z,99.90
2023-05-30T16:43:52.465Z,99.90
2023-05-30T16:46:19.138Z,99.90
2023-05-30T16:48:45.939Z,99.90
2023-05-30T16:51:13.026Z,99.90
2023-05-30T16:53:41.474Z,99.90
2023-05-30T16:56:15.696Z,99.90
2023-05-30T16:58:44.579Z,99.90
2023-05-30T17:01:11.276Z,99.90
2023-05-30T17:03:38.113Z,99.90
2023-05-30T17:06:05.512Z,99.90
2023-05-30T17:08:32.569Z,99.90
2023-05-30T17:10:59.622Z,99.90
2023-05-30T17:13:26.658Z,99.90
2023-05-30T17:15:53.288Z,99.90
2023-05-30T17:18:19.889Z,99.90
2023-05-30T17:20:47.133Z,99.90
2023-05-30T17:23:13.794Z,99.90
2023-05-30T17:25:50.810Z,99.90
2023-05-30T17:28:27.155Z,99.90
2023-05-30T17:30:55.593Z,99.90
2023-05-30T17:33:22.295Z,99.90
2023-05-30T17:35:49.055Z,99.90
2023-05-30T17:38:15.940Z,99.90
2023-05-30T17:40:42.607Z,99.90
2023-05-30T17:43:09.640Z,99.90
2023-05-30T17:45:36.317Z,99.90
2023-05-30T17:48:04.747Z,99.90
2023-05-30T17:50:34.039Z,99.90
2023-05-30T17:53:01.885Z,99.90
2023-05-30T17:55:28.558Z,99.90
2023-05-30T17:57:55.419Z,99.90
2023-05-30T18:00:24.532Z,99.90
2023-05-30T18:02:51.873Z,99.90
2023-05-30T18:05:20.213Z,99.90
2023-05-30T18:07:46.916Z,99.90
2023-05-30T18:10:15.175Z,99.90
2023-05-30T18:12:42.508Z,99.90
2023-05-30T18:15:09.919Z,99.90
2023-05-30T18:17:36.788Z,99.90
2023-05-30T18:20:06.314Z,99.00
2023-05-30T18:22:33.173Z,98.90
2023-05-30T18:25:00.637Z,99.70
2023-05-30T18:27:28.102Z,97.00
2023-05-30T18:29:58.526Z,97.30
2023-05-30T18:32:25.135Z,98.30
2023-05-30T18:34:51.803Z,99.00
2023-05-30T18:37:21.817Z,97.30
2023-05-30T18:39:50.748Z,97.60
2023-05-30T18:42:17.572Z,97.50
2023-05-30T18:44:44.224Z,97.80
2023-05-30T18:47:11.482Z,97.40
2023-05-30T18:49:38.743Z,97.00
2023-05-30T18:52:05.791Z,96.70
2023-05-30T18:54:32.503Z,97.70
2023-05-30T18:56:59.125Z,97.70
2023-05-30T18:59:27.882Z,96.10
2023-05-30T19:01:56.818Z,96.60
2023-05-30T19:04:23.751Z,97.00
2023-05-30T19:06:58.077Z,96.70
2023-05-30T19:09:25.289Z,96.30
2023-05-30T19:11:52.149Z,97.80
2023-05-30T19:14:19.906Z,98.00
2023-05-30T19:16:46.558Z,98.70
2023-05-30T19:19:13.170Z,99.70
2023-05-30T19:21:39.823Z,99.90
2023-05-30T19:24:06.682Z,99.90
2023-05-30T19:29:24.556Z,99.90
2023-05-30T19:31:51.188Z,99.90
2023-05-30T19:34:17.813Z,99.90
2023-05-30T19:36:44.553Z,99.90
2023-05-30T19:39:11.610Z,99.90
2023-05-30T19:41:38.635Z,99.90
2023-05-30T19:44:05.629Z,99.90
2023-05-30T19:46:32.306Z,99.90
2023-05-30T19:48:59.267Z,99.90
2023-05-30T19:51:25.995Z,99.90
2023-05-30T19:53:52.601Z,99.90
2023-05-30T19:56:19.192Z,99.90
2023-05-30T19:58:45.822Z,99.90
2023-05-30T20:01:12.537Z,99.90
2023-05-30T20:03:41.098Z,99.90
2023-05-30T20:06:07.757Z,99.90
2023-05-30T20:08:34.406Z,99.90
2023-05-30T20:11:03.540Z,99.90
2023-05-30T20:13:30.267Z,99.90
2023-05-30T20:15:57.133Z,99.90
2023-05-30T20:18:23.845Z,99.90
2023-05-30T20:20:50.667Z,99.90
2023-05-30T20:23:17.308Z,99.90
2023-05-30T20:25:45.290Z,99.90
2023-05-30T20:28:18.158Z,99.90
2023-05-30T20:30:45.713Z,99.90
2023-05-30T20:33:12.448Z,99.90
2023-05-30T20:35:39.447Z,99.90
2023-05-30T20:38:06.069Z,99.90
2023-05-30T20:40:32.698Z,99.90
2023-05-30T20:42:59.316Z,99.90
2023-05-30T20:45:30.189Z,99.90
2023-05-30T20:47:56.884Z,99.90
2023-05-30T20:50:24.119Z,99.90
2023-05-30T20:52:50.745Z,99.90
2023-05-30T20:55:17.417Z,99.90
2023-05-30T20:57:44.090Z,99.90
2023-05-30T21:00:11.380Z,99.90
2023-05-30T21:02:38.231Z,99.90
2023-05-30T21:05:06.105Z,99.90
2023-05-30T21:07:33.610Z,99.90
2023-05-30T21:10:00.445Z,99.90
2023-05-30T21:12:27.263Z,99.90
2023-05-30T21:14:53.940Z,99.90
2023-05-30T21:17:20.627Z,99.90
2023-05-30T21:19:47.312Z,99.90
2023-05-30T21:22:13.993Z,99.90
2023-05-30T21:24:42.582Z,99.90
2023-05-30T21:27:09.221Z,99.90
2023-05-30T21:29:36.076Z,99.90
2023-05-30T21:32:02.741Z,99.90
2023-05-30T21:34:29.404Z,99.90
2023-05-30T21:36:56.195Z,99.90
2023-05-30T21:39:22.829Z,99.90
2023-05-30T21:41:49.496Z,99.90
2023-05-30T21:44:16.133Z,99.90
2023-05-30T21:46:42.793Z,99.90
2023-05-30T21:49:09.474Z,99.90
2023-05-30T21:51:36.175Z,99.90
2023-05-30T21:54:03.718Z,99.90
2023-05-30T21:56:34.308Z,99.90
2023-05-30T21:59:01.214Z,99.90
2023-05-30T22:01:28.029Z,99.90
2023-05-30T22:03:54.980Z,99.90
2023-05-30T22:06:21.816Z,99.90
2023-05-30T22:08:50.728Z,99.90
2023-05-30T22:11:17.476Z,99.90
2023-05-30T22:13:44.160Z,99.90
2023-05-30T22:16:10.863Z,99.90
2023-05-30T22:18:37.518Z,99.90
2023-05-30T22:21:04.230Z,99.90
2023-05-30T22:23:31.199Z,99.90
2023-05-30T22:25:57.802Z,99.90
2023-05-30T22:28:26.122Z,99.90
2023-05-30T22:30:52.789Z,99.90
2023-05-30T22:33:19.420Z,99.90
2023-05-30T22:35:46.094Z,99.90
2023-05-30T22:38:12.744Z,99.90
2023-05-30T22:40:39.398Z,99.90
2023-05-30T22:43:05.983Z,99.90
2023-05-30T22:45:32.669Z,99.90
2023-05-30T22:48:00.504Z,99.90
2023-05-30T22:50:27.394Z,99.90
2023-05-30T22:52:54.001Z,99.90
2023-05-30T22:55:20.669Z,99.90
2023-05-30T22:57:47.360Z,99.90
2023-05-30T23:00:14.723Z,99.90
2023-05-30T23:02:41.509Z,99.90
2023-05-30T23:05:09.234Z,99.90
2023-05-30T23:07:35.864Z,99.90
2023-05-30T23:10:03.551Z,99.90
2023-05-30T23:12:30.327Z,99.90
2023-05-30T23:14:57.128Z,99.90
2023-05-30T23:17:23.747Z,99.90
2023-05-30T23:19:50.407Z,99.90
2023-05-30T23:22:17.145Z,99.90
2023-05-30T23:24:43.716Z,99.90
2023-05-30T23:27:10.347Z,99.90
2023-05-30T23:29:37.000Z,99.90
2023-05-30T23:32:03.827Z,99.90
2023-05-30T23:34:30.423Z,99.90
2023-05-30T23:36:57.041Z,99.90
2023-05-30T23:39:23.697Z,99.90
2023-05-30T23:41:50.344Z,99.90
2023-05-30T23:44:16.942Z,99.90
2023-05-30T23:46:43.657Z,99.90
2023-05-30T23:49:10.428Z,99.90
2023-05-30T23:51:37.253Z,99.90
2023-05-30T23:54:03.975Z,99.90
2023-05-30T23:56:30.648Z,99.90
2023-05-30T23:58:57.268Z,99.90
